Ana Sayfa
METAR-TAF:

METAR-TAF

Havaalanları :

Stigler, Oklahoma, Amerika Birleşik Devletleri

Enlem: 35-17-17N, Boylam: 095-05-38W, yükseklik: 183 m

Güncel hava durumu gözlemi

Rapor saat 14:55 UTC de 23 dakika önce yapıldı.
Rüzgar güneybatıdan 12 kt
Sıcaklık 33°C
Nem 63%
Basınç 1017 hPa
Görüş mesafesi: 9.7 km
Açık gökyüzü
Toz Pusu

METAR: KGZL 251455Z AUTO 23012KT 6SM HZ CLR 33/25 A3003 RMK AO2

Saat: 10:18 (15:18 UTC)


TAF: eksik

4.000'den fazla havaalanı için hava durumu gözlemleri ve tahminleri (METAR ve TAF raporları).

Kullanılabilir istasyonlar harita üzerinde sarı ve kırmızı noktalarla gösterilir.

İstasyonun adını görmek için fareyi noktanın üzerinde gezdirin.

Sonrasında hava gözlem ve tahminlerini görmek için tıklayın.

Haritayı değiştirmek için: yaklaştırmak için siyah artı işaretli yeşil düğmeye ve uzaklaştırmak için de eksi işaretli düğmeye hızla tıklayın; bitişik haritalar için yeşil okları kullanın.


METAR-TAF: